Time;durP1;ratioP1;P1;durP2;ratioP2;P2;SDS_P1;SDS_P2;PMS_P1;PMS_P2;Temp;Humidity;BMP_temperature;BMP_pressure;BME280_temperature;BME280_humidity;BME280_pressure;Samples;Min_cycle;Max_cycle;Signal;HPM_P1;HPM_P2
2021/10/09 07:00:25;;;;;;;1.35;1.35;;;;;;;5.87;94.35;99777.16;5936475;23;20074;-71
2021/10/09 07:02:51;;;;;;;1.23;1.23;;;;;;;6.00;94.24;99778.25;4956677;28;20066;-71
2021/10/09 07:05:17;;;;;;;4.53;1.25;;;;;;;6.20;94.30;99774.28;4954605;28;20030;-71
2021/10/09 07:07:49;;;;;;;1.85;1.73;;;;;;;5.80;92.56;99785.59;4954533;28;20116;-71
2021/10/09 07:10:14;;;;;;;1.30;1.30;;;;;;;6.07;92.11;99785.22;4954247;28;20027;-72
2021/10/09 07:12:40;;;;;;;1.60;1.50;;;;;;;6.24;92.78;99786.38;4952694;28;20106;-71
2021/10/09 07:15:08;;;;;;;1.38;1.27;;;;;;;6.27;92.84;99788.13;4946294;28;20042;-72
2021/10/09 07:17:33;;;;;;;0.70;0.70;;;;;;;6.43;94.58;99785.81;4953624;28;20034;-73
2021/10/09 07:19:59;;;;;;;1.27;1.27;;;;;;;6.59;92.03;99786.03;4952553;28;20031;-73
2021/10/09 07:22:25;;;;;;;1.83;1.65;;;;;;;6.51;90.95;99783.34;4954107;28;20365;-73
2021/10/09 07:24:51;;;;;;;1.67;1.58;;;;;;;6.35;92.22;99787.41;4951709;28;20029;-73
2021/10/09 07:27:16;;;;;;;1.42;1.42;;;;;;;6.68;92.39;99783.59;4954194;28;20081;-74
2021/10/09 07:29:41;;;;;;;0.75;0.75;;;;;;;6.80;92.68;99786.31;4952493;28;20069;-74
2021/10/09 07:32:07;;;;;;;1.42;1.40;;;;;;;6.83;92.26;99782.94;4953845;28;20476;-73
2021/10/09 07:34:32;;;;;;;1.85;1.52;;;;;;;7.08;92.43;99786.69;4932593;28;20129;-73
2021/10/09 07:36:58;;;;;;;2.10;1.98;;;;;;;7.33;91.42;99792.97;4965373;28;20058;-73
2021/10/09 07:39:25;;;;;;;1.50;1.50;;;;;;;7.55;89.92;99788.94;4952031;28;20023;-74
2021/10/09 07:41:51;;;;;;;2.55;2.08;;;;;;;7.65;88.92;99790.75;4952831;28;20485;-74
2021/10/09 07:44:20;;;;;;;0.95;0.95;;;;;;;7.75;87.12;99781.41;4950563;28;20038;-73
2021/10/09 07:46:46;;;;;;;3.70;3.30;;;;;;;7.90;88.18;99784.97;4955380;28;20064;-74
2021/10/09 07:49:11;;;;;;;1.33;1.33;;;;;;;7.88;88.96;99783.22;4952762;28;20579;-74
2021/10/09 07:51:36;;;;;;;2.35;2.15;;;;;;;8.30;87.82;99777.53;4953555;28;20388;-73
2021/10/09 07:54:03;;;;;;;2.30;1.90;;;;;;;8.85;84.38;99779.63;4955089;28;20146;-72
2021/10/09 07:56:29;;;;;;;1.55;1.45;;;;;;;9.93;81.57;99776.53;4953842;28;20106;-72
2021/10/09 07:58:54;;;;;;;2.70;2.50;;;;;;;11.44;72.47;99776.19;4953737;28;20122;-72
2021/10/09 08:01:19;;;;;;;1.70;1.60;;;;;;;12.41;68.45;99768.56;4953225;28;20117;-72
2021/10/09 08:03:45;;;;;;;0.98;0.98;;;;;;;14.23;61.15;99768.81;4953256;28;20072;-72
2021/10/09 08:06:11;;;;;;;1.52;1.40;;;;;;;16.45;55.00;99764.13;4950724;28;20015;-74
2021/10/09 08:08:36;;;;;;;1.10;1.08;;;;;;;18.52;48.83;99764.00;4949812;28;20031;-74
2021/10/09 08:11:01;;;;;;;1.45;1.00;;;;;;;18.61;46.53;99771.53;4954181;28;21058;-74
2021/10/09 08:13:27;;;;;;;0.60;0.60;;;;;;;21.48;41.34;99756.41;4948981;28;20043;-74
2021/10/09 08:15:52;;;;;;;2.38;0.90;;;;;;;21.74;40.49;99756.94;4955444;28;20015;-72
2021/10/09 08:18:17;;;;;;;2.00;1.10;;;;;;;23.69;36.88;99761.84;4958135;28;20465;-74
2021/10/09 08:20:45;;;;;;;1.33;1.23;;;;;;;23.69;36.08;99766.25;4950999;28;20106;-74
2021/10/09 08:23:20;;;;;;;1.17;1.08;;;;;;;23.65;35.10;99770.88;4953062;28;20027;-74
2021/10/09 08:36:54;;;;;;;0.82;0.82;;;;;;;27.35;29.53;99768.63;4952930;28;20122;-74
2021/10/09 08:39:20;;;;;;;2.90;1.67;;;;;;;26.97;31.01;99767.78;4953577;28;20503;-74
2021/10/09 08:41:46;;;;;;;1.40;1.30;;;;;;;26.40;31.31;99763.72;4952484;28;20031;-74
2021/10/09 08:44:11;;;;;;;2.10;1.63;;;;;;;25.31;33.10;99761.94;4954378;28;20031;-74
2021/10/09 08:46:37;;;;;;;2.05;1.85;;;;;;;25.23;33.52;99764.22;4957366;28;20162;-74
2021/10/09 08:49:02;;;;;;;1.27;1.17;;;;;;;26.35;31.96;99758.69;4956649;28;20074;-74
2021/10/09 08:51:28;;;;;;;2.25;2.05;;;;;;;25.04;34.07;99765.34;4959254;28;20358;-74
2021/10/09 08:53:55;;;;;;;1.83;1.55;;;;;;;23.34;35.45;99769.03;4958283;28;20507;-75
2021/10/09 08:56:50;;;;;;;1.48;1.35;;;;;;;21.41;39.02;99769.94;4956932;28;20031;-75
2021/10/09 08:59:25;;;;;;;2.25;2.05;;;;;;;20.97;40.81;99778.06;4949672;28;20135;-75
2021/10/09 09:02:12;;;;;;;1.25;1.20;;;;;;;23.32;37.04;99765.63;4953627;28;20034;-75
2021/10/09 09:07:38;;;;;;;3.53;2.00;;;;;;;23.63;35.34;99770.06;4954313;28;20031;-75
2021/10/09 09:40:11;;;;;;;1.27;1.10;;;;;;;23.48;36.11;99757.69;4956223;28;20102;-74
2021/10/09 09:42:43;;;;;;;1.35;1.25;;;;;;;23.53;36.51;99753.00;4953816;28;20031;-75
2021/10/09 09:45:13;;;;;;;1.42;1.33;;;;;;;21.30;39.73;99752.84;4955808;28;20023;-74
2021/10/09 09:47:41;;;;;;;12.68;2.00;;;;;;;24.27;34.85;99739.94;4955935;28;20110;-74
2021/10/09 09:50:08;;;;;;;1.45;1.35;;;;;;;21.77;38.32;99749.75;4955702;28;20016;-74
2021/10/09 09:52:36;;;;;;;1.35;1.25;;;;;;;23.29;36.82;99747.25;4955796;28;20125;-74
2021/10/09 09:55:03;;;;;;;1.52;1.20;;;;;;;25.19;32.93;99741.47;4954704;28;20019;-74
2021/10/09 09:57:30;;;;;;;1.75;0.95;;;;;;;24.48;33.27;99744.94;4955208;28;20089;-73
2021/10/09 09:59:56;;;;;;;2.85;1.48;;;;;;;20.13;39.71;99757.97;4956243;28;20019;-74
2021/10/09 10:02:26;;;;;;;1.13;1.02;;;;;;;19.84;39.42;99746.84;4950142;28;20036;-73
2021/10/09 10:04:52;;;;;;;1.55;1.17;;;;;;;20.27;40.24;99753.84;4962678;28;20027;-74
2021/10/09 10:07:18;;;;;;;1.75;1.65;;;;;;;21.73;37.62;99735.00;4959114;28;20018;-73
2021/10/09 10:09:44;;;;;;;1.80;1.70;;;;;;;22.16;36.91;99742.63;4964791;28;20114;-73
2021/10/09 10:12:09;;;;;;;3.60;1.60;;;;;;;20.27;39.03;99745.09;4961157;28;20480;-73
2021/10/09 10:14:35;;;;;;;1.20;1.10;;;;;;;20.55;38.83;99747.44;4949261;28;20024;-72
2021/10/09 10:17:01;;;;;;;3.67;2.63;;;;;;;21.38;37.71;99743.75;4968554;28;20035;-72
2021/10/09 10:20:01;;;;;;;1.90;1.80;;;;;;;20.84;38.63;99751.44;4963051;28;20077;-72
2021/10/09 10:22:51;;;;;;;1.52;1.42;;;;;;;22.11;36.89;99740.22;4938576;29;20029;-72
2021/10/09 10:25:25;;;;;;;;;;;;;;;22.01;37.27;99738.94;4946836;28;20046;-73
2021/10/09 10:28:02;;;;;;;1.30;1.15;;;;;;;21.87;36.99;99741.38;4962479;28;19917;-72
2021/10/09 10:30:33;;;;;;;1.85;1.02;;;;;;;23.74;33.79;99735.09;4961294;28;20361;-72
2021/10/09 10:32:59;;;;;;;2.13;1.23;;;;;;;23.44;33.80;99738.47;4960777;28;20034;-73
2021/10/09 10:35:30;;;;;;;1.52;1.40;;;;;;;25.18;32.08;99730.03;4954001;28;20019;-72
2021/10/09 10:38:15;;;;;;;1.67;1.10;;;;;;;21.32;38.24;99744.84;4962236;28;20388;-72
2021/10/09 10:40:51;;;;;;;1.33;1.20;;;;;;;23.42;35.56;99731.59;4963893;28;20026;-72
2021/10/09 10:46:25;;;;;;;1.15;0.80;;;;;;;23.53;33.41;99745.06;4962783;28;20058;-73
2021/10/09 10:56:59;;;;;;;3.97;2.38;;;;;;;23.22;34.12;99738.81;4952308;28;20039;-72
2021/10/09 10:59:36;;;;;;;3.33;1.45;;;;;;;23.48;33.56;99736.53;4959115;28;20018;-72
2021/10/09 11:02:15;;;;;;;2.28;1.83;;;;;;;22.54;36.15;99735.38;4957360;28;20031;-72
2021/10/09 11:04:44;;;;;;;2.45;1.38;;;;;;;24.86;32.46;99735.53;4963269;28;20102;-73
2021/10/09 11:07:09;;;;;;;1.27;1.10;;;;;;;24.75;32.51;99732.66;4958677;28;20050;-72
2021/10/09 11:09:37;;;;;;;1.30;0.88;;;;;;;24.96;32.09;99730.50;4961800;28;20026;-73
2021/10/09 11:12:02;;;;;;;1.70;1.60;;;;;;;22.92;35.47;99737.81;4956048;28;20023;-72
2021/10/09 11:14:29;;;;;;;1.20;1.15;;;;;;;25.19;31.87;99722.91;4959426;28;20044;-73
2021/10/09 11:17:04;;;;;;;1.80;1.50;;;;;;;24.45;33.10;99729.22;4965515;28;20489;-73
2021/10/09 11:19:40;;;;;;;5.13;1.70;;;;;;;24.68;32.78;99726.03;4957669;28;20031;-74
2021/10/09 11:22:05;;;;;;;1.95;1.50;;;;;;;26.24;30.15;99721.34;4964100;28;20023;-74
2021/10/09 11:24:45;;;;;;;0.98;0.95;;;;;;;21.88;35.67;99729.91;4958449;28;20066;-74
2021/10/09 11:27:12;;;;;;;3.35;2.05;;;;;;;22.72;36.25;99723.00;4963433;28;20029;-74
2021/10/09 11:29:38;;;;;;;1.10;0.93;;;;;;;24.85;32.18;99717.91;4949641;29;20027;-74
2021/10/09 11:32:05;;;;;;;1.20;1.10;;;;;;;25.00;32.46;99723.22;4958406;28;20046;-74
2021/10/09 11:34:31;;;;;;;1.42;1.13;;;;;;;21.83;36.32;99726.63;4964616;28;20041;-74
2021/10/09 11:36:57;;;;;;;6.55;1.58;;;;;;;22.25;35.96;99728.97;4962023;28;20480;-74
2021/10/09 11:39:26;;;;;;;1.70;1.23;;;;;;;21.87;36.72;99726.41;4958341;28;20070;-74
2021/10/09 11:42:07;;;;;;;6.32;1.67;;;;;;;21.89;36.10;99728.97;4950384;28;20023;-74
2021/10/09 11:44:38;;;;;;;1.25;1.20;;;;;;;22.29;35.65;99726.09;4954623;28;20026;-74
2021/10/09 11:47:22;;;;;;;2.38;2.00;;;;;;;24.12;33.60;99722.28;4958485;28;20016;-74
2021/10/09 11:55:48;;;;;;;0.85;0.85;;;;;;;21.64;36.46;99724.88;4956883;28;20460;-74
2021/10/09 11:58:13;;;;;;;1.25;1.20;;;;;;;22.21;35.08;99722.13;4955174;28;20054;-74
2021/10/09 12:00:39;;;;;;;2.03;1.58;;;;;;;21.80;36.45;99725.84;4956522;28;20023;-73
2021/10/09 12:03:28;;;;;;;2.38;1.40;;;;;;;22.03;36.43;99718.56;4962191;28;20023;-74
2021/10/09 12:05:57;;;;;;;1.23;1.13;;;;;;;19.09;41.87;99727.84;4956439;28;20023;-74
2021/10/09 12:08:31;;;;;;;0.75;0.75;;;;;;;19.17;42.71;99724.03;4955462;28;20492;-74
2021/10/09 12:11:25;;;;;;;1.33;1.20;;;;;;;18.43;42.20;99723.19;4956591;28;20279;-72
2021/10/09 12:14:10;;;;;;;3.53;1.55;;;;;;;18.21;43.96;99723.06;4955298;28;20533;-74
2021/10/09 12:16:48;;;;;;;2.33;1.65;;;;;;;17.56;45.06;99728.66;4952058;28;20087;-73
2021/10/09 12:19:24;;;;;;;4.80;1.37;;;;;;;17.42;46.50;99720.38;4957413;28;20023;-72
2021/10/09 12:21:53;;;;;;;2.97;0.80;;;;;;;17.41;47.09;99711.66;4953670;28;20031;-68
2021/10/09 12:24:24;;;;;;;5.60;3.97;;;;;;;17.61;46.62;99711.03;4953616;28;20027;-70
2021/10/09 12:27:06;;;;;;;2.92;1.55;;;;;;;17.23;46.64;99708.75;4953375;28;20102;-73
2021/10/09 12:29:35;;;;;;;1.27;1.20;;;;;;;17.29;45.49;99719.88;4953080;28;20495;-73
2021/10/09 12:32:19;;;;;;;3.05;1.58;;;;;;;17.39;46.41;99709.97;4949673;28;20023;-73
2021/10/09 12:34:45;;;;;;;1.83;0.80;;;;;;;16.89;45.60;99709.72;4953023;28;20030;-73
2021/10/09 12:37:27;;;;;;;2.22;1.75;;;;;;;16.99;45.73;99700.69;4957433;28;20502;-73
2021/10/09 12:40:09;;;;;;;4.38;1.98;;;;;;;16.72;45.80;99701.50;4949063;28;20050;-75
2021/10/09 12:42:35;;;;;;;0.85;0.85;;;;;;;16.69;45.79;99700.66;4950299;28;20110;-69
2021/10/09 12:45:02;;;;;;;1.38;1.15;;;;;;;16.78;46.87;99698.69;4946067;28;20097;-69
2021/10/09 12:47:28;;;;;;;1.00;1.00;;;;;;;16.93;48.06;99690.41;4953143;28;20463;-69
2021/10/09 12:49:53;;;;;;;1.75;1.20;;;;;;;16.71;46.92;99697.97;4953005;28;20050;-68
2021/10/09 12:52:18;;;;;;;1.60;1.10;;;;;;;17.23;47.10;99693.03;4953221;28;20142;-75
2021/10/09 12:54:44;;;;;;;1.42;1.30;;;;;;;17.20;46.87;99693.97;4952823;28;20082;-73
2021/10/09 12:57:09;;;;;;;0.65;0.65;;;;;;;16.87;47.79;99686.19;4950847;28;20089;-72
2021/10/09 12:59:35;;;;;;;0.77;0.75;;;;;;;17.08;47.10;99684.72;4948416;28;20016;-72
2021/10/09 13:02:04;;;;;;;0.60;0.60;;;;;;;16.81;47.23;99701.22;4952457;28;20031;-72
2021/10/09 13:04:29;;;;;;;1.35;1.25;;;;;;;16.33;47.32;99692.03;4950438;28;20025;-72
2021/10/09 13:06:55;;;;;;;0.80;0.80;;;;;;;16.29;47.49;99686.94;4950480;28;20023;-72
2021/10/09 13:09:21;;;;;;;1.80;1.70;;;;;;;16.38;48.03;99678.84;4951005;28;20026;-72
2021/10/09 13:11:58;;;;;;;2.10;1.65;;;;;;;16.53;47.62;99675.78;4959789;28;20511;-72
2021/10/09 13:14:23;;;;;;;1.35;1.30;;;;;;;16.32;47.75;99679.88;4950411;28;20127;-72
2021/10/09 13:16:49;;;;;;;1.92;1.65;;;;;;;16.44;47.98;99676.06;4961514;28;20133;-72
2021/10/09 13:19:14;;;;;;;1.33;1.05;;;;;;;16.45;48.23;99677.78;4955624;28;20107;-71
2021/10/09 13:21:40;;;;;;;1.38;1.25;;;;;;;16.61;48.50;99684.28;4956153;28;20038;-71
2021/10/09 13:24:06;;;;;;;1.45;1.25;;;;;;;16.72;47.08;99678.78;4956042;28;20019;-71
2021/10/09 13:26:32;;;;;;;1.98;1.50;;;;;;;16.84;48.27;99667.13;4956296;28;20051;-78
2021/10/09 13:28:59;;;;;;;0.93;0.93;;;;;;;17.07;47.46;99664.69;4953440;28;20041;-78
2021/10/09 13:31:24;;;;;;;1.05;1.05;;;;;;;17.11;47.52;99668.91;4952840;28;20030;-79
2021/10/09 13:33:50;;;;;;;2.65;1.73;;;;;;;17.23;48.15;99664.22;4955749;28;20019;-77
2021/10/09 13:36:16;;;;;;;14.65;2.13;;;;;;;17.25;46.69;99659.78;4953336;28;20051;-79
2021/10/09 13:38:41;;;;;;;1.65;1.13;;;;;;;17.37;47.64;99664.63;4954999;28;20019;-78
2021/10/09 13:41:06;;;;;;;2.08;1.35;;;;;;;16.94;46.76;99665.94;4957280;28;20031;-79
2021/10/09 13:43:32;;;;;;;1.73;1.33;;;;;;;16.98;46.72;99667.56;4949472;28;20031;-80
2021/10/09 13:45:57;;;;;;;2.72;1.17;;;;;;;16.87;47.91;99674.88;4955682;28;20028;-79
2021/10/09 13:48:23;;;;;;;2.85;1.83;;;;;;;16.40;49.78;99669.22;4950084;28;20020;-78
2021/10/09 13:50:54;;;;;;;1.42;1.33;;;;;;;16.73;48.43;99666.56;4949650;28;20030;-78
2021/10/09 13:53:20;;;;;;;1.80;1.70;;;;;;;16.85;47.83;99660.97;4951532;28;20130;-78
2021/10/09 13:55:47;;;;;;;1.13;1.02;;;;;;;17.03;47.86;99660.44;4953857;28;20350;-78
2021/10/09 13:58:13;;;;;;;4.20;1.52;;;;;;;16.95;47.23;99662.41;4950934;28;20024;-78
2021/10/09 14:00:40;;;;;;;10.02;1.70;;;;;;;16.89;48.18;99660.00;4953562;28;20089;-78
2021/10/09 14:03:06;;;;;;;1.98;1.80;;;;;;;16.48;49.00;99661.97;4957431;28;20019;-78
2021/10/09 14:05:33;;;;;;;1.60;1.20;;;;;;;16.73;49.26;99662.22;4953119;28;20018;-78
2021/10/09 14:07:59;;;;;;;1.15;1.05;;;;;;;16.83;49.11;99662.81;4953592;28;20029;-79
2021/10/09 14:10:24;;;;;;;1.05;0.98;;;;;;;16.67;48.11;99663.19;4952059;28;20517;-78
2021/10/09 14:12:50;;;;;;;3.72;0.98;;;;;;;16.89;47.28;99657.38;4943714;28;20032;-80
2021/10/09 14:15:16;;;;;;;1.48;1.10;;;;;;;16.66;48.32;99656.25;4953354;28;20077;-80
2021/10/09 14:17:41;;;;;;;1.13;1.13;;;;;;;16.86;48.54;99657.44;4953678;28;20042;-75
2021/10/09 14:20:09;;;;;;;0.75;0.75;;;;;;;17.04;46.53;99656.91;4954515;28;20046;-75
2021/10/09 14:22:35;;;;;;;0.88;0.88;;;;;;;17.06;47.66;99655.09;4954030;28;20031;-75
2021/10/09 14:25:02;;;;;;;0.98;0.98;;;;;;;17.23;46.58;99645.88;4954936;28;20016;-76
2021/10/09 14:27:28;;;;;;;2.90;1.55;;;;;;;17.15;47.40;99649.56;4954952;28;20031;-75
2021/10/09 14:29:54;;;;;;;1.05;0.95;;;;;;;17.23;47.56;99641.50;4948932;28;20026;-75
2021/10/09 14:32:20;;;;;;;2.13;1.75;;;;;;;17.08;46.81;99647.22;4952091;28;20035;-75
2021/10/09 14:34:45;;;;;;;0.68;0.68;;;;;;;16.93;46.13;99648.53;4955357;28;20038;-75
2021/10/09 14:37:10;;;;;;;0.80;0.80;;;;;;;16.78;45.78;99655.06;4952919;28;20099;-75
2021/10/09 14:39:36;;;;;;;1.20;1.20;;;;;;;16.77;44.77;99640.25;4955042;28;20445;-75
2021/10/09 14:42:02;;;;;;;1.80;0.98;;;;;;;16.70;45.49;99647.41;4954418;28;20369;-75
2021/10/09 14:44:27;;;;;;;0.60;0.60;;;;;;;16.62;45.51;99633.66;4949572;28;20090;-75
2021/10/09 14:49:22;;;;;;;0.70;0.70;;;;;;;16.56;45.87;99644.31;4955010;28;20030;-75
2021/10/09 15:18:47;;;;;;;0.80;0.80;;;;;;;16.26;46.82;99645.19;4951029;28;20444;-73
2021/10/09 15:21:12;;;;;;;1.48;1.10;;;;;;;16.21;46.75;99647.06;4954108;28;20059;-73
2021/10/09 15:23:37;;;;;;;0.82;0.82;;;;;;;16.05;47.00;99651.81;4954357;28;20047;-73
2021/10/09 15:26:03;;;;;;;0.55;0.55;;;;;;;16.05;47.97;99644.88;4951988;28;20050;-73
2021/10/09 15:28:28;;;;;;;2.20;0.75;;;;;;;15.97;48.35;99649.44;4952079;28;20047;-73
2021/10/09 15:30:53;;;;;;;0.50;0.50;;;;;;;15.90;48.10;99647.84;4953215;28;20019;-74
2021/10/09 15:33:19;;;;;;;0.63;0.63;;;;;;;15.89;47.52;99646.13;4951768;28;20019;-74
2021/10/09 15:35:45;;;;;;;0.82;0.82;;;;;;;15.94;48.18;99644.25;4953414;28;20033;-73
2021/10/09 15:38:10;;;;;;;0.70;0.70;;;;;;;15.87;46.85;99653.19;4952149;28;20019;-75
2021/10/09 15:40:35;;;;;;;0.70;0.70;;;;;;;15.90;47.46;99648.72;4953753;28;20051;-75
2021/10/09 15:43:01;;;;;;;3.15;1.65;;;;;;;15.85;48.35;99652.34;4951802;28;20026;-74
2021/10/09 15:45:26;;;;;;;1.17;1.15;;;;;;;15.77;48.24;99651.69;4950709;28;20097;-74
2021/10/09 15:47:52;;;;;;;1.52;1.42;;;;;;;15.70;47.72;99644.88;4953150;28;20078;-77
2021/10/09 15:50:22;;;;;;;0.75;0.75;;;;;;;15.59;49.56;99651.22;4952108;28;20552;-76
2021/10/09 15:52:48;;;;;;;1.65;1.55;;;;;;;15.52;48.67;99652.28;4953563;28;20094;-76
2021/10/09 15:55:14;;;;;;;0.43;0.43;;;;;;;15.51;47.68;99649.66;4948756;28;20433;-77
2021/10/09 15:57:40;;;;;;;0.60;0.60;;;;;;;15.42;48.75;99650.75;4953738;28;20472;-75
2021/10/09 16:00:07;;;;;;;1.38;0.85;;;;;;;15.35;48.71;99639.59;4949152;28;20023;-77
2021/10/09 16:02:33;;;;;;;0.93;0.93;;;;;;;15.32;48.78;99650.09;4952390;28;20507;-77
2021/10/09 16:04:59;;;;;;;2.10;1.90;;;;;;;15.25;49.55;99650.28;4953093;28;20024;-76
2021/10/09 16:07:24;;;;;;;0.47;0.47;;;;;;;15.17;49.90;99656.53;4951695;28;20027;-77
2021/10/09 16:09:50;;;;;;;0.68;0.68;;;;;;;15.05;50.73;99659.44;4949747;28;20023;-77
2021/10/09 16:12:15;;;;;;;0.57;0.57;;;;;;;14.99;50.70;99662.19;4946218;28;20114;-74
2021/10/09 16:14:40;;;;;;;0.50;0.50;;;;;;;14.94;51.71;99666.66;4951553;28;20031;-76
2021/10/09 16:17:23;;;;;;;1.45;1.15;;;;;;;14.76;52.29;99659.19;4951564;28;20030;-76
2021/10/09 16:19:49;;;;;;;1.77;1.67;;;;;;;14.63;53.55;99669.88;4948803;28;20023;-76
2021/10/09 16:22:15;;;;;;;0.80;0.80;;;;;;;14.53;53.58;99673.56;4952498;28;20417;-77
2021/10/09 16:24:41;;;;;;;1.27;1.17;;;;;;;14.22;54.93;99675.00;4947357;28;20020;-76
2021/10/09 16:27:06;;;;;;;0.35;0.35;;;;;;;14.08;56.24;99675.25;4949201;28;20042;-77
2021/10/09 16:29:32;;;;;;;1.67;1.55;;;;;;;13.80;57.24;99675.72;4953367;28;20030;-77
2021/10/09 16:31:57;;;;;;;1.13;1.02;;;;;;;13.56;59.11;99676.97;4951065;28;20024;-76
2021/10/09 16:34:22;;;;;;;1.50;1.05;;;;;;;13.43;60.67;99675.44;4946670;28;20574;-77
2021/10/09 16:36:50;;;;;;;3.15;2.75;;;;;;;13.41;60.48;99682.41;4953255;28;20469;-76
2021/10/09 16:39:15;;;;;;;1.98;1.60;;;;;;;13.31;61.75;99680.84;4951451;28;20019;-74
2021/10/09 16:41:40;;;;;;;0.77;0.77;;;;;;;13.20;62.37;99680.97;4952280;28;20498;-76
2021/10/09 16:44:06;;;;;;;1.00;1.00;;;;;;;13.12;62.28;99690.59;4947600;28;20031;-76
2021/10/09 16:46:34;;;;;;;1.15;1.15;;;;;;;13.00;62.85;99685.56;4954429;28;20110;-76
2021/10/09 16:49:00;;;;;;;4.07;1.60;;;;;;;13.04;62.98;99693.28;4956933;28;20031;-76
2021/10/09 16:51:26;;;;;;;2.13;2.03;;;;;;;12.86;64.34;99699.63;4954028;28;20022;-75
2021/10/09 16:53:52;;;;;;;2.72;2.50;;;;;;;12.73;64.44;99698.03;4953166;28;20065;-76
2021/10/09 16:56:18;;;;;;;2.30;2.15;;;;;;;12.66;65.15;99703.31;4956270;28;20023;-75
2021/10/09 16:58:44;;;;;;;3.00;1.55;;;;;;;12.64;65.07;99702.50;4954107;28;20031;-75
2021/10/09 17:01:09;;;;;;;2.22;1.80;;;;;;;12.46;65.98;99701.78;4956344;28;20042;-76
2021/10/09 17:03:35;;;;;;;1.98;1.77;;;;;;;12.31;67.28;99709.75;4952492;28;20106;-72
2021/10/09 17:06:01;;;;;;;0.80;0.80;;;;;;;12.18;67.62;99700.34;4956501;28;20032;-72
2021/10/09 17:08:26;;;;;;;2.47;2.30;;;;;;;12.07;67.97;99711.72;4956916;28;20078;-72
2021/10/09 17:10:52;;;;;;;0.90;0.90;;;;;;;11.99;68.29;99708.34;4955438;28;20023;-72
2021/10/09 17:13:17;;;;;;;0.90;0.90;;;;;;;11.94;67.96;99709.22;4955271;28;20027;-72
2021/10/09 17:15:42;;;;;;;0.55;0.55;;;;;;;11.84;68.76;99713.63;4956385;28;20030;-70
2021/10/09 17:18:08;;;;;;;10.68;1.75;;;;;;;11.74;69.27;99711.97;4955706;28;20035;-71
2021/10/09 17:20:33;;;;;;;0.60;0.60;;;;;;;11.66;69.65;99718.97;4960354;28;20050;-72
2021/10/09 17:22:58;;;;;;;0.70;0.70;;;;;;;11.55;70.64;99722.47;4956209;28;20081;-71
2021/10/09 17:25:24;;;;;;;1.85;1.52;;;;;;;11.43;72.22;99727.75;4951161;28;20027;-71
2021/10/09 17:27:49;;;;;;;1.50;1.40;;;;;;;11.32;72.97;99725.22;4953214;28;20031;-72
2021/10/09 17:30:15;;;;;;;1.55;1.45;;;;;;;11.27;73.33;99727.00;4951875;28;20019;-71
2021/10/09 17:32:41;;;;;;;1.40;1.30;;;;;;;11.23;73.72;99734.78;4954432;28;20486;-72
2021/10/09 17:35:08;;;;;;;0.98;0.90;;;;;;;11.14;75.04;99740.03;4956208;28;20118;-71
2021/10/09 17:37:33;;;;;;;1.50;1.42;;;;;;;10.97;75.87;99743.53;4955151;28;20051;-71
2021/10/09 17:39:58;;;;;;;3.15;1.90;;;;;;;10.92;77.17;99740.09;4956160;28;20106;-71
2021/10/09 17:42:24;;;;;;;2.17;2.08;;;;;;;10.75;77.26;99741.91;4951133;28;20040;-70
2021/10/09 17:44:49;;;;;;;1.98;1.83;;;;;;;10.64;78.15;99743.69;4950975;28;20070;-72
2021/10/09 17:47:15;;;;;;;3.13;1.90;;;;;;;10.60;77.50;99742.81;4949451;28;20106;-71
2021/10/09 17:49:40;;;;;;;1.58;1.48;;;;;;;10.64;77.38;99748.88;4952187;28;20023;-71
2021/10/09 17:52:08;;;;;;;0.98;0.98;;;;;;;10.46;78.44;99748.03;4954737;28;20551;-71
2021/10/09 17:54:33;;;;;;;1.40;1.30;;;;;;;10.36;78.89;99748.91;4952774;28;20058;-71
2021/10/09 17:57:00;;;;;;;1.45;1.35;;;;;;;10.34;79.35;99760.97;4955224;28;20058;-71
2021/10/09 17:59:26;;;;;;;2.28;1.52;;;;;;;10.24;80.35;99757.53;4956012;28;20432;-71
2021/10/09 18:01:51;;;;;;;3.33;1.40;;;;;;;10.20;80.99;99752.31;4961614;28;20029;-71
2021/10/09 18:04:17;;;;;;;3.63;3.20;;;;;;;10.16;81.25;99755.81;4958640;28;20023;-71
2021/10/09 18:06:42;;;;;;;1.45;1.35;;;;;;;10.17;79.31;99752.34;4955514;28;20098;-71
2021/10/09 18:09:08;;;;;;;1.13;1.13;;;;;;;10.18;78.43;99748.88;4958229;28;20046;-71
2021/10/09 18:11:35;;;;;;;0.82;0.82;;;;;;;10.13;78.14;99756.66;4962432;28;20019;-71
2021/10/09 18:14:00;;;;;;;0.73;0.73;;;;;;;10.14;77.87;99752.34;4954519;28;20384;-71
2021/10/09 18:16:26;;;;;;;2.38;2.20;;;;;;;10.08;78.11;99760.97;4955529;28;20031;-71
2021/10/09 18:18:51;;;;;;;1.88;1.77;;;;;;;10.08;78.48;99762.72;4955145;28;20055;-71
2021/10/09 18:21:17;;;;;;;1.88;1.15;;;;;;;10.07;79.25;99755.81;4955618;28;20158;-71
2021/10/09 18:23:42;;;;;;;1.95;1.85;;;;;;;9.97;80.04;99753.22;4955330;28;20558;-72
2021/10/09 18:26:08;;;;;;;0.68;0.68;;;;;;;9.91;79.66;99755.81;4948849;28;20031;-72
2021/10/09 18:28:33;;;;;;;2.13;2.03;;;;;;;9.85;80.22;99768.72;4955454;28;20038;-69
2021/10/09 18:30:58;;;;;;;0.70;0.70;;;;;;;9.83;80.80;99761.84;4959212;28;20392;-71
2021/10/09 18:33:24;;;;;;;1.75;1.63;;;;;;;9.61;83.09;99760.94;4960358;28;20030;-71
2021/10/09 18:35:49;;;;;;;2.40;1.63;;;;;;;9.48;84.50;99767.84;4957914;28;20038;-72
2021/10/09 18:38:15;;;;;;;2.60;2.35;;;;;;;9.42;85.47;99770.38;4948318;28;20027;-72
2021/10/09 18:40:40;;;;;;;2.17;1.38;;;;;;;9.51;85.27;99771.25;4956679;28;20485;-72
2021/10/09 18:43:05;;;;;;;0.77;0.77;;;;;;;9.38;84.89;99773.81;4953954;28;20026;-71
2021/10/09 18:45:32;;;;;;;1.42;1.42;;;;;;;9.25;85.69;99773.78;4955374;28;20388;-71
2021/10/09 18:47:58;;;;;;;3.28;3.03;;;;;;;9.21;86.12;99766.00;4950485;28;20022;-72
2021/10/09 18:50:24;;;;;;;0.90;0.90;;;;;;;9.15;86.13;99772.03;4957755;28;20031;-71
2021/10/09 18:52:49;;;;;;;1.52;1.50;;;;;;;9.13;86.30;99772.88;4958844;28;20033;-71
2021/10/09 18:55:15;;;;;;;2.17;2.08;;;;;;;9.10;86.16;99780.63;4958464;28;20030;-71
2021/10/09 18:57:41;;;;;;;1.00;1.00;;;;;;;9.07;86.34;99775.44;4959459;28;20023;-71
2021/10/09 19:00:07;;;;;;;1.15;1.10;;;;;;;9.02;86.54;99765.94;4952571;28;20531;-71
2021/10/09 19:02:34;;;;;;;2.30;2.20;;;;;;;8.99;86.64;99771.13;4956558;28;20023;-71
2021/10/09 19:04:59;;;;;;;1.50;1.30;;;;;;;9.01;86.65;99774.56;4955799;28;20073;-71
2021/10/09 19:07:24;;;;;;;0.95;0.95;;;;;;;8.97;86.96;99771.94;4954634;28;20429;-71
2021/10/09 19:09:50;;;;;;;3.05;1.48;;;;;;;9.04;87.28;99770.25;4958270;28;20589;-71
2021/10/09 19:12:15;;;;;;;2.33;2.22;;;;;;;8.92;86.63;99768.47;4956941;28;20441;-71
2021/10/09 19:14:41;;;;;;;1.75;1.65;;;;;;;8.76;87.11;99772.72;5011416;23;20043;-70
2021/10/09 19:17:06;;;;;;;5.38;2.78;;;;;;;8.63;88.02;99771.78;4954093;28;20039;-70
2021/10/09 19:19:32;;;;;;;1.73;1.63;;;;;;;8.64;88.20;99773.50;4954413;28;20030;-70
2021/10/09 19:21:57;;;;;;;1.50;1.00;;;;;;;8.57;88.63;99776.91;4954211;28;20383;-70
2021/10/09 19:24:23;;;;;;;2.95;1.70;;;;;;;8.75;90.24;99774.44;4954340;28;20026;-69
2021/10/09 19:26:50;;;;;;;1.00;1.00;;;;;;;8.72;88.81;99781.31;4954222;28;20030;-70
2021/10/09 19:29:15;;;;;;;1.48;0.95;;;;;;;8.66;88.99;99781.28;4954192;28;20094;-69
2021/10/09 19:31:42;;;;;;;2.15;1.58;;;;;;;8.56;88.39;99785.53;4954022;28;20016;-70
2021/10/09 19:34:23;;;;;;;1.00;1.00;;;;;;;8.45;88.76;99785.44;4954140;28;20039;-70
2021/10/09 19:36:54;;;;;;;1.75;1.65;;;;;;;8.32;89.28;99785.31;4954335;28;20046;-70
2021/10/09 19:39:19;;;;;;;0.95;0.95;;;;;;;8.33;89.34;99782.75;4951017;28;20050;-70
2021/10/09 19:41:45;;;;;;;2.15;2.00;;;;;;;8.24;90.49;99788.69;4953912;28;20082;-69
2021/10/09 19:44:10;;;;;;;1.50;1.40;;;;;;;8.12;91.05;99787.72;4953596;28;20022;-70
2021/10/09 19:46:37;;;;;;;2.10;2.00;;;;;;;8.09;91.12;99788.59;4953999;28;20022;-70
2021/10/09 19:49:03;;;;;;;1.63;1.48;;;;;;;8.16;90.38;99785.19;4947969;28;20082;-70
2021/10/09 19:52:16;;;;;;;1.63;1.52;;;;;;;8.12;90.62;99787.72;4953779;28;20075;-70
2021/10/09 19:54:29;;;;;;;1.02;0.93;;;;;;;8.08;90.93;99791.16;4955899;28;20035;-70
2021/10/09 19:56:56;;;;;;;1.08;1.08;;;;;;;8.03;91.15;99787.69;4951721;29;20102;-69
2021/10/09 19:59:22;;;;;;;3.35;1.95;;;;;;;8.12;91.00;99792.88;4953760;28;20031;-70
2021/10/09 20:01:47;;;;;;;2.38;2.10;;;;;;;8.22;91.42;99789.56;4953511;28;20440;-70
2021/10/09 20:04:12;;;;;;;2.00;1.90;;;;;;;8.14;90.33;99791.19;4953433;28;20031;-70
2021/10/09 20:06:38;;;;;;;3.45;3.10;;;;;;;8.13;91.20;99799.81;4953682;28;20098;-70
2021/10/09 20:09:10;;;;;;;0.85;0.85;;;;;;;8.10;90.79;99799.78;4952627;28;20054;-70